createdAt,value
2022-11-15T00:00:54.774Z,11.55
2022-11-15T00:01:54.775Z,11.60
2022-11-15T00:02:54.734Z,11.59
2022-11-15T00:03:54.876Z,11.54
2022-11-15T00:04:54.708Z,11.48
2022-11-15T00:05:54.697Z,11.47
2022-11-15T00:06:54.722Z,11.41
2022-11-15T00:07:56.152Z,11.35
2022-11-15T00:08:54.680Z,11.35
2022-11-15T00:09:54.678Z,11.32
2022-11-15T00:10:54.634Z,11.40
2022-11-15T00:11:54.644Z,11.44
2022-11-15T00:12:54.629Z,11.48
2022-11-15T00:13:54.639Z,11.50
2022-11-15T00:14:54.607Z,11.43
2022-11-15T00:15:54.584Z,11.44
2022-11-15T00:16:54.560Z,11.48
2022-11-15T00:17:54.554Z,11.50
2022-11-15T00:18:54.535Z,11.45
2022-11-15T00:19:54.534Z,11.52
2022-11-15T00:20:54.537Z,11.62
2022-11-15T00:21:54.503Z,11.66
2022-11-15T00:22:54.493Z,11.68
2022-11-15T00:23:54.493Z,11.77
2022-11-15T00:24:54.474Z,11.72
2022-11-15T00:25:54.463Z,11.73
2022-11-15T00:26:54.478Z,11.84
2022-11-15T00:27:54.455Z,12.00
2022-11-15T00:28:54.445Z,12.03
2022-11-15T00:29:54.446Z,12.00
2022-11-15T00:30:54.425Z,12.02
2022-11-15T00:31:54.393Z,12.18
2022-11-15T00:32:54.434Z,12.28
2022-11-15T00:33:54.395Z,12.29
2022-11-15T00:34:54.374Z,12.27
2022-11-15T00:35:54.350Z,12.25
2022-11-15T00:36:54.326Z,12.18
2022-11-15T00:37:54.324Z,12.24
2022-11-15T00:38:54.345Z,12.28
2022-11-15T00:39:54.292Z,12.22
2022-11-15T00:40:54.288Z,12.21
2022-11-15T00:41:54.273Z,12.12
2022-11-15T00:42:54.262Z,12.13
2022-11-15T00:43:54.252Z,12.15
2022-11-15T00:44:54.327Z,12.17
2022-11-15T00:45:54.227Z,12.24
2022-11-15T00:46:54.210Z,12.36
2022-11-15T00:47:54.206Z,12.28
2022-11-15T00:48:54.243Z,12.27
2022-11-15T00:49:54.213Z,12.25
2022-11-15T00:50:54.165Z,12.22
2022-11-15T00:51:54.162Z,12.25
2022-11-15T00:52:54.157Z,12.27
2022-11-15T00:53:54.142Z,12.32
2022-11-15T00:54:54.138Z,12.42
2022-11-15T00:55:54.165Z,12.46
2022-11-15T00:56:54.116Z,12.40
2022-11-15T00:57:54.095Z,12.49
2022-11-15T00:58:54.103Z,12.46
2022-11-15T00:59:54.073Z,12.39
2022-11-15T01:00:54.139Z,12.37
2022-11-15T01:01:54.104Z,12.25
2022-11-15T01:02:54.032Z,12.43
2022-11-15T01:03:58.620Z,12.60
2022-11-15T01:04:55.016Z,12.61
2022-11-15T01:05:53.993Z,12.65
2022-11-15T01:06:54.055Z,12.65
2022-11-15T01:07:54.014Z,12.65
2022-11-15T01:08:53.966Z,12.70
2022-11-15T01:09:53.958Z,12.73
2022-11-15T01:10:53.943Z,12.62
2022-11-15T01:11:53.923Z,12.64
2022-11-15T01:12:53.967Z,12.58
2022-11-15T01:13:53.902Z,12.50
2022-11-15T01:14:53.894Z,12.45
2022-11-15T01:15:53.882Z,12.46
2022-11-15T01:16:53.881Z,12.45
2022-11-15T01:17:53.869Z,12.46
2022-11-15T01:18:53.887Z,12.54
2022-11-15T01:19:53.833Z,12.53
2022-11-15T01:20:53.826Z,12.45
2022-11-15T01:21:53.812Z,12.40
2022-11-15T01:22:54.125Z,12.36
2022-11-15T01:23:53.791Z,12.31
2022-11-15T01:24:53.802Z,12.36
2022-11-15T01:25:53.762Z,12.39
2022-11-15T01:26:53.762Z,12.46
2022-11-15T01:27:53.757Z,12.47
2022-11-15T01:28:53.740Z,12.46
2022-11-15T01:29:53.723Z,12.50
2022-11-15T01:30:53.753Z,12.49
2022-11-15T01:31:53.703Z,12.47
2022-11-15T01:32:53.694Z,12.54
2022-11-15T01:33:53.673Z,12.42
2022-11-15T01:34:53.683Z,12.46
2022-11-15T01:35:53.651Z,12.57
2022-11-15T01:36:53.664Z,12.60
2022-11-15T01:37:53.632Z,12.60
2022-11-15T01:38:53.613Z,12.54
2022-11-15T01:39:53.611Z,12.47
2022-11-15T01:40:53.594Z,12.37
2022-11-15T01:41:53.593Z,12.40
2022-11-15T01:42:53.668Z,12.53
2022-11-15T01:43:53.562Z,12.60
2022-11-15T01:44:53.542Z,12.64
2022-11-15T01:45:53.536Z,12.70
2022-11-15T01:46:53.594Z,12.61
2022-11-15T01:47:53.561Z,12.70
2022-11-15T01:48:53.521Z,12.62
2022-11-15T01:49:53.494Z,12.62
2022-11-15T01:50:53.479Z,12.57
2022-11-15T01:51:53.488Z,12.62
2022-11-15T01:52:53.454Z,12.70
2022-11-15T01:53:53.443Z,12.76
2022-11-15T01:54:54.047Z,12.78
2022-11-15T01:55:53.435Z,12.79
2022-11-15T01:56:53.423Z,12.70
2022-11-15T01:57:53.402Z,12.65
2022-11-15T01:58:53.385Z,12.70
2022-11-15T01:59:53.405Z,12.83
2022-11-15T02:00:53.405Z,12.85
2022-11-15T02:01:53.366Z,12.68
2022-11-15T02:02:53.365Z,12.61
2022-11-15T02:03:53.332Z,12.64
2022-11-15T02:04:53.366Z,12.57
2022-11-15T02:05:53.334Z,12.61
2022-11-15T02:06:53.378Z,12.60
2022-11-15T02:07:53.299Z,12.60
2022-11-15T02:08:53.275Z,12.64
2022-11-15T02:09:53.275Z,12.55
2022-11-15T02:10:53.285Z,12.58
2022-11-15T02:11:53.273Z,12.64
2022-11-15T02:12:53.248Z,12.67
2022-11-15T02:13:53.232Z,12.82
2022-11-15T02:14:53.214Z,12.78
2022-11-15T02:15:53.242Z,12.72
2022-11-15T02:16:53.187Z,12.68
2022-11-15T02:17:53.184Z,12.67
2022-11-15T02:18:53.155Z,12.76
2022-11-15T02:19:53.184Z,12.72
2022-11-15T02:20:53.131Z,12.75
2022-11-15T02:21:53.193Z,12.87
2022-11-15T02:22:53.151Z,12.86
2022-11-15T02:23:53.113Z,12.98
2022-11-15T02:24:53.082Z,12.98
2022-11-15T02:25:53.255Z,12.97
2022-11-15T02:26:53.082Z,12.94
2022-11-15T02:27:53.061Z,13.04
2022-11-15T02:28:53.065Z,13.15
2022-11-15T02:29:53.335Z,13.18
2022-11-15T02:30:53.021Z,13.23
2022-11-15T02:31:53.027Z,13.22
2022-11-15T02:32:53.027Z,13.03
2022-11-15T02:33:53.036Z,13.13
2022-11-15T02:34:53.007Z,13.18
2022-11-15T02:35:52.966Z,13.19
2022-11-15T02:36:52.950Z,13.23
2022-11-15T02:37:53.003Z,13.23
2022-11-15T02:38:52.936Z,13.28
2022-11-15T02:39:52.964Z,13.30
2022-11-15T02:40:52.904Z,13.19
2022-11-15T02:41:52.906Z,13.11
2022-11-15T02:42:52.888Z,13.16
2022-11-15T02:43:52.874Z,13.09
2022-11-15T02:44:52.898Z,13.03
2022-11-15T02:45:52.909Z,13.03
2022-11-15T02:46:52.835Z,13.01
2022-11-15T02:47:52.832Z,12.94
2022-11-15T02:48:52.813Z,13.00
2022-11-15T02:49:53.033Z,13.03
2022-11-15T02:50:52.798Z,13.04
2022-11-15T02:51:52.863Z,13.08
2022-11-15T02:52:52.772Z,13.01
2022-11-15T02:53:52.763Z,13.00
2022-11-15T02:54:52.746Z,13.01
2022-11-15T02:55:52.723Z,13.00
2022-11-15T02:56:52.724Z,13.04
2022-11-15T02:57:52.758Z,13.05
2022-11-15T02:58:52.693Z,13.08
2022-11-15T02:59:52.686Z,12.94
2022-11-15T03:00:52.787Z,12.86
2022-11-15T03:01:52.745Z,12.79
2022-11-15T03:02:52.657Z,12.83
2022-11-15T03:03:52.663Z,12.86
2022-11-15T03:04:52.625Z,12.83
2022-11-15T03:05:52.621Z,12.85
2022-11-15T03:06:52.700Z,12.87
2022-11-15T03:07:53.991Z,12.91
2022-11-15T03:08:52.576Z,12.86
2022-11-15T03:09:52.593Z,12.85
2022-11-15T03:10:52.573Z,12.85
2022-11-15T03:11:52.543Z,12.93
2022-11-15T03:12:52.538Z,12.94
2022-11-15T03:13:52.532Z,12.95
2022-11-15T03:14:52.533Z,12.94
2022-11-15T03:15:52.537Z,12.94
2022-11-15T03:16:52.482Z,13.00
2022-11-15T03:17:52.482Z,12.91
2022-11-15T03:18:52.483Z,12.83
2022-11-15T03:19:52.463Z,12.87
2022-11-15T03:20:52.442Z,12.95
2022-11-15T03:21:52.489Z,12.98
2022-11-15T03:22:52.423Z,12.93
2022-11-15T03:23:52.410Z,12.97
2022-11-15T03:24:52.393Z,12.91
2022-11-15T03:25:52.404Z,12.87
2022-11-15T03:26:52.372Z,12.87
2022-11-15T03:27:52.413Z,12.90
2022-11-15T03:28:52.347Z,12.93
2022-11-15T03:29:52.342Z,12.91
2022-11-15T03:30:52.327Z,12.94
2022-11-15T03:31:52.314Z,12.90
2022-11-15T03:32:52.335Z,12.90
2022-11-15T03:33:52.334Z,12.93
2022-11-15T03:34:52.294Z,12.93
2022-11-15T03:35:52.275Z,12.91
2022-11-15T03:36:52.253Z,12.93
2022-11-15T03:37:52.326Z,12.97
2022-11-15T03:38:52.257Z,12.98
2022-11-15T03:39:52.276Z,12.97
2022-11-15T03:40:52.217Z,13.00
2022-11-15T03:41:52.202Z,12.98
2022-11-15T03:42:52.191Z,12.91
2022-11-15T03:43:52.224Z,12.86
2022-11-15T03:44:52.198Z,12.86
2022-11-15T03:45:52.164Z,12.87
2022-11-15T03:46:52.163Z,12.86
2022-11-15T03:47:52.124Z,12.90
2022-11-15T03:48:52.116Z,12.94
2022-11-15T03:49:52.124Z,12.93
2022-11-15T03:50:52.124Z,13.01
2022-11-15T03:51:52.093Z,13.03
2022-11-15T03:52:52.090Z,12.97
2022-11-15T03:53:52.075Z,12.95
2022-11-15T03:54:52.074Z,12.97
2022-11-15T03:55:52.073Z,12.98
2022-11-15T03:56:52.027Z,12.95
2022-11-15T03:57:52.023Z,12.94
2022-11-15T03:58:52.011Z,12.98
2022-11-15T03:59:52.016Z,12.98
2022-11-15T04:00:52.025Z,13.09
2022-11-15T04:01:51.994Z,13.13
2022-11-15T04:02:51.955Z,13.15
2022-11-15T04:03:52.014Z,13.15
2022-11-15T04:04:51.937Z,13.15
2022-11-15T04:05:51.969Z,13.15
2022-11-15T04:06:51.978Z,13.09
2022-11-15T04:07:51.905Z,13.01
2022-11-15T04:08:51.951Z,12.98
2022-11-15T04:09:51.887Z,12.95
2022-11-15T04:10:51.866Z,12.87
2022-11-15T04:11:51.867Z,12.86
2022-11-15T04:12:51.884Z,12.80
2022-11-15T04:13:51.860Z,12.86
2022-11-15T04:14:51.841Z,12.80
2022-11-15T04:15:51.815Z,12.86
2022-11-15T04:16:51.798Z,12.82
2022-11-15T04:17:51.815Z,12.73
2022-11-15T04:18:51.806Z,12.70
2022-11-15T04:19:51.794Z,12.65
2022-11-15T04:20:51.753Z,12.68
2022-11-15T04:21:51.764Z,12.72
2022-11-15T04:22:51.725Z,12.68
2022-11-15T04:23:51.724Z,12.76
2022-11-15T04:24:51.745Z,12.85
2022-11-15T04:25:51.705Z,12.86
2022-11-15T04:26:51.726Z,12.85
2022-11-15T04:27:51.697Z,12.86
2022-11-15T04:28:51.665Z,12.83
2022-11-15T04:29:51.666Z,12.83
2022-11-15T04:30:51.666Z,12.83
2022-11-15T04:31:51.637Z,12.76
2022-11-15T04:32:51.616Z,12.76
2022-11-15T04:33:51.664Z,12.75
2022-11-15T04:34:51.609Z,12.70
2022-11-15T04:35:51.578Z,12.64
2022-11-15T04:36:51.634Z,12.60
2022-11-15T04:37:51.554Z,12.60
2022-11-15T04:38:51.618Z,12.60
2022-11-15T04:39:51.538Z,12.58
2022-11-15T04:40:51.526Z,12.57
2022-11-15T04:41:51.552Z,12.58
2022-11-15T04:42:51.525Z,12.53
2022-11-15T04:43:51.486Z,12.35
2022-11-15T04:44:51.475Z,12.32
2022-11-15T04:45:51.468Z,12.37
2022-11-15T04:46:51.468Z,12.37
2022-11-15T04:47:51.533Z,12.39
2022-11-15T04:48:56.907Z,12.32
2022-11-15T04:49:52.414Z,12.31
2022-11-15T04:50:51.458Z,12.32
2022-11-15T04:51:51.400Z,12.32
2022-11-15T04:52:51.445Z,12.32
2022-11-15T04:53:51.413Z,12.35
2022-11-15T04:54:51.366Z,12.31
2022-11-15T04:55:51.392Z,12.25
2022-11-15T04:56:51.354Z,12.29
2022-11-15T04:57:51.335Z,12.36
2022-11-15T04:58:51.332Z,12.42
2022-11-15T04:59:51.326Z,12.39
2022-11-15T05:00:51.359Z,12.39
2022-11-15T05:01:51.275Z,12.37
2022-11-15T05:02:51.371Z,12.36
2022-11-15T05:03:51.265Z,12.35
2022-11-15T05:04:51.306Z,12.31
2022-11-15T05:05:51.255Z,12.31
2022-11-15T05:06:51.300Z,12.31
2022-11-15T05:07:51.268Z,12.18
2022-11-15T05:08:51.204Z,12.13
2022-11-15T05:09:51.273Z,12.04
2022-11-15T05:10:51.230Z,12.00
2022-11-15T05:11:51.177Z,12.00
2022-11-15T05:12:51.177Z,11.97
2022-11-15T05:13:51.143Z,11.95
2022-11-15T05:14:51.137Z,12.00
2022-11-15T05:15:51.114Z,12.06
2022-11-15T05:16:51.160Z,12.00
2022-11-15T05:17:51.104Z,12.02
2022-11-15T05:18:51.174Z,12.02
2022-11-15T05:19:51.078Z,12.06
2022-11-15T05:20:51.064Z,12.02
2022-11-15T05:21:51.045Z,11.88
2022-11-15T05:22:51.124Z,11.88
2022-11-15T05:23:51.037Z,11.94
2022-11-15T05:24:51.052Z,12.00
2022-11-15T05:25:51.007Z,12.10
2022-11-15T05:26:51.014Z,12.13
2022-11-15T05:27:50.985Z,12.17
2022-11-15T05:28:51.065Z,12.17
2022-11-15T05:29:50.965Z,12.10
2022-11-15T05:30:50.963Z,12.09
2022-11-15T05:31:50.983Z,12.06
2022-11-15T05:32:50.926Z,12.09
2022-11-15T05:33:50.917Z,12.03
2022-11-15T05:34:50.934Z,12.02
2022-11-15T05:35:50.956Z,11.97
2022-11-15T05:36:50.892Z,11.97
2022-11-15T05:37:50.960Z,11.88
2022-11-15T05:38:50.866Z,11.86
2022-11-15T05:39:50.870Z,11.81
2022-11-15T05:40:50.896Z,11.78
2022-11-15T05:41:50.823Z,11.77
2022-11-15T05:42:50.867Z,11.70
2022-11-15T05:43:50.806Z,11.68
2022-11-15T05:44:50.799Z,11.65
2022-11-15T05:45:50.776Z,11.62
2022-11-15T05:46:50.794Z,11.59
2022-11-15T05:47:50.759Z,11.54
2022-11-15T05:48:50.742Z,11.48
2022-11-15T05:49:50.777Z,11.47
2022-11-15T05:50:50.734Z,11.40
2022-11-15T05:51:50.710Z,11.36
2022-11-15T05:52:50.899Z,11.30
2022-11-15T05:53:50.698Z,11.26
2022-11-15T05:54:50.675Z,11.18
2022-11-15T05:55:50.665Z,11.14
2022-11-15T05:56:50.648Z,11.17
2022-11-15T05:57:50.746Z,11.17
2022-11-15T05:58:51.408Z,11.14
2022-11-15T05:59:50.620Z,11.05
2022-11-15T06:00:50.603Z,11.04
2022-11-15T06:01:50.635Z,11.02
2022-11-15T06:02:50.591Z,10.99
2022-11-15T06:03:50.595Z,10.93
2022-11-15T06:04:50.565Z,10.94
2022-11-15T06:05:50.545Z,10.92
2022-11-15T06:06:50.571Z,10.90
2022-11-15T06:07:50.531Z,10.87
2022-11-15T06:08:50.520Z,10.86
2022-11-15T06:09:50.524Z,10.78
2022-11-15T06:10:50.498Z,10.74
2022-11-15T06:11:50.491Z,10.69
2022-11-15T06:12:50.473Z,10.69
2022-11-15T06:13:50.466Z,10.67
2022-11-15T06:14:50.550Z,10.63
2022-11-15T06:15:50.497Z,10.59
2022-11-15T06:16:50.424Z,10.60
2022-11-15T06:17:50.465Z,10.56
2022-11-15T06:18:50.569Z,10.54
2022-11-15T06:19:50.495Z,10.53
2022-11-15T06:20:50.384Z,10.59
2022-11-15T06:21:50.384Z,10.60
2022-11-15T06:22:50.367Z,10.61
2022-11-15T06:23:50.395Z,10.59
2022-11-15T06:24:50.373Z,10.57
2022-11-15T06:25:50.353Z,10.57
2022-11-15T06:26:50.334Z,10.64
2022-11-15T06:27:50.452Z,10.68
2022-11-15T06:28:50.303Z,10.67
2022-11-15T06:29:50.298Z,10.60
2022-11-15T06:30:53.204Z,10.56
2022-11-15T06:31:50.366Z,10.51
2022-11-15T06:32:50.274Z,10.54
2022-11-15T06:33:50.364Z,10.53
2022-11-15T06:34:50.255Z,10.46
2022-11-15T06:35:50.289Z,10.34
2022-11-15T06:36:51.324Z,10.33
2022-11-15T06:37:50.207Z,10.30
2022-11-15T06:38:50.384Z,10.38
2022-11-15T06:39:50.189Z,10.44
2022-11-15T06:40:50.301Z,10.48
2022-11-15T06:41:50.137Z,10.59
2022-11-15T06:42:50.151Z,10.60
2022-11-15T06:43:50.127Z,10.61
2022-11-15T06:44:50.171Z,10.61
2022-11-15T06:45:50.125Z,10.63
2022-11-15T06:46:50.097Z,10.64
2022-11-15T06:47:50.078Z,10.69
2022-11-15T06:48:50.080Z,10.75
2022-11-15T06:49:50.083Z,10.75
2022-11-15T06:50:50.063Z,10.81
2022-11-15T06:51:50.042Z,10.79
2022-11-15T06:52:50.069Z,10.86
2022-11-15T06:53:50.012Z,10.90
2022-11-15T06:54:49.993Z,10.96
2022-11-15T06:55:54.873Z,11.02
2022-11-15T06:56:51.096Z,11.04
2022-11-15T06:57:49.968Z,11.08
2022-11-15T06:58:49.956Z,11.12
2022-11-15T06:59:49.954Z,11.15
2022-11-15T07:00:50.094Z,11.18
2022-11-15T07:01:49.997Z,11.19
2022-11-15T07:02:49.937Z,11.27
2022-11-15T07:03:49.954Z,11.29
2022-11-15T07:04:49.884Z,11.33
2022-11-15T07:05:49.875Z,11.33
2022-11-15T07:06:49.936Z,11.29
2022-11-15T07:07:49.884Z,11.29
2022-11-15T07:08:49.872Z,11.27
2022-11-15T07:09:49.831Z,11.27
2022-11-15T07:10:49.828Z,11.36
2022-11-15T07:11:49.871Z,11.37
2022-11-15T07:12:49.802Z,11.40
2022-11-15T07:13:49.796Z,11.52
2022-11-15T07:14:49.783Z,11.59
2022-11-15T07:15:49.768Z,11.59
2022-11-15T07:16:49.747Z,11.65
2022-11-15T07:17:49.742Z,11.77
2022-11-15T07:18:49.734Z,11.86
2022-11-15T07:19:49.781Z,11.97
2022-11-15T07:20:49.704Z,12.03
2022-11-15T07:21:49.693Z,12.13
2022-11-15T07:22:50.735Z,12.20
2022-11-15T07:23:49.669Z,12.18
2022-11-15T07:24:49.662Z,12.27
2022-11-15T07:25:49.690Z,12.21
2022-11-15T07:26:49.635Z,12.35
2022-11-15T07:27:49.635Z,12.36
2022-11-15T07:28:49.615Z,12.37
2022-11-15T07:29:49.623Z,12.40
2022-11-15T07:30:49.833Z,12.37
2022-11-15T07:31:49.844Z,12.46
2022-11-15T07:32:49.574Z,12.50
2022-11-15T07:33:49.596Z,12.50
2022-11-15T07:34:49.558Z,12.43
2022-11-15T07:35:49.562Z,12.46
2022-11-15T07:36:49.768Z,12.54
2022-11-15T07:37:49.495Z,12.61
2022-11-15T07:38:49.493Z,12.68
2022-11-15T07:39:49.478Z,12.73
2022-11-15T07:40:49.466Z,12.76
2022-11-15T07:41:49.456Z,12.80
2022-11-15T07:42:49.825Z,12.80
2022-11-15T07:43:49.445Z,12.85
2022-11-15T07:44:49.443Z,12.90
2022-11-15T07:45:50.258Z,12.90
2022-11-15T07:46:49.402Z,12.93
2022-11-15T07:47:49.421Z,12.90
2022-11-15T07:48:49.420Z,12.87
2022-11-15T07:49:49.363Z,12.94
2022-11-15T07:50:49.363Z,12.98
2022-11-15T07:51:49.347Z,13.04
2022-11-15T07:52:49.327Z,12.93
2022-11-15T07:53:49.336Z,13.04
2022-11-15T07:54:49.322Z,13.08
2022-11-15T07:55:49.293Z,13.09
2022-11-15T07:56:49.313Z,13.05
2022-11-15T07:57:49.284Z,13.13
2022-11-15T07:58:49.255Z,13.25
2022-11-15T07:59:49.264Z,13.30
2022-11-15T08:00:49.258Z,13.39
2022-11-15T08:01:49.305Z,13.41
2022-11-15T08:02:49.333Z,13.47
2022-11-15T08:03:49.212Z,13.62
2022-11-15T08:04:49.240Z,13.60
2022-11-15T08:05:49.366Z,13.65
2022-11-15T08:06:49.240Z,13.79
2022-11-15T08:07:50.973Z,13.87
2022-11-15T08:08:49.185Z,13.81
2022-11-15T08:09:49.138Z,13.79
2022-11-15T08:10:49.185Z,13.85
2022-11-15T08:11:49.194Z,13.92
2022-11-15T08:12:49.197Z,13.96
2022-11-15T08:13:49.090Z,14.07
2022-11-15T08:14:49.083Z,14.72
2022-11-15T08:15:53.399Z,15.52
2022-11-15T08:16:50.094Z,16.09
2022-11-15T08:17:49.067Z,16.13
2022-11-15T08:18:49.051Z,15.86
2022-11-15T08:19:49.048Z,15.91
2022-11-15T08:20:49.014Z,15.83
2022-11-15T08:21:48.996Z,15.84
2022-11-15T08:22:49.117Z,15.97
2022-11-15T08:23:49.181Z,16.32
2022-11-15T08:24:48.986Z,16.69
2022-11-15T08:25:48.948Z,16.64
2022-11-15T08:26:49.061Z,16.36
2022-11-15T08:27:48.966Z,16.21
2022-11-15T08:28:48.930Z,16.24
2022-11-15T08:29:48.917Z,16.04
2022-11-15T08:30:48.906Z,16.08
2022-11-15T08:31:48.887Z,16.09
2022-11-15T08:32:48.878Z,15.97
2022-11-15T08:33:48.885Z,15.83
2022-11-15T08:34:48.847Z,15.77
2022-11-15T08:35:48.858Z,15.67
2022-11-15T08:36:48.838Z,15.49
2022-11-15T08:37:48.820Z,15.46
2022-11-15T08:38:48.812Z,15.33
2022-11-15T08:39:48.805Z,15.22
2022-11-15T08:40:48.786Z,15.28
2022-11-15T08:41:48.781Z,15.19
2022-11-15T08:42:48.756Z,15.21
2022-11-15T08:43:48.743Z,15.31
2022-11-15T08:44:48.725Z,15.06
2022-11-15T08:45:48.749Z,14.82
2022-11-15T08:46:48.707Z,14.82
2022-11-15T08:47:54.019Z,14.92
2022-11-15T08:48:49.687Z,15.14
2022-11-15T08:49:48.680Z,15.28
2022-11-15T08:50:48.666Z,15.25
2022-11-15T08:51:48.679Z,15.22
2022-11-15T08:52:48.647Z,15.33
2022-11-15T08:53:48.741Z,15.51
2022-11-15T08:54:48.623Z,15.52
2022-11-15T08:55:48.618Z,15.46
2022-11-15T08:56:48.605Z,15.33
2022-11-15T08:57:48.608Z,15.18
2022-11-15T08:58:49.352Z,15.15
2022-11-15T08:59:48.705Z,15.14
2022-11-15T09:00:48.550Z,15.17
2022-11-15T09:01:48.611Z,15.28
2022-11-15T09:02:48.608Z,15.40
2022-11-15T09:03:48.525Z,15.51
2022-11-15T09:04:48.497Z,15.58
2022-11-15T09:05:48.517Z,15.54
2022-11-15T09:06:48.503Z,15.59
2022-11-15T09:07:48.470Z,15.47
2022-11-15T09:08:56.903Z,15.37
2022-11-15T09:09:49.469Z,15.55
2022-11-15T09:10:48.444Z,15.70
2022-11-15T09:11:48.451Z,15.82
2022-11-15T09:12:48.428Z,15.83
2022-11-15T09:13:48.411Z,15.72
2022-11-15T09:14:48.419Z,15.65
2022-11-15T09:15:48.384Z,15.55
2022-11-15T09:16:48.370Z,15.70
2022-11-15T09:17:48.359Z,15.88
2022-11-15T09:18:48.339Z,15.90
2022-11-15T09:19:48.379Z,15.88
2022-11-15T09:20:48.360Z,15.90
2022-11-15T09:21:48.341Z,15.86
2022-11-15T09:22:48.301Z,15.86
2022-11-15T09:23:48.287Z,16.01
2022-11-15T09:24:48.336Z,16.13
2022-11-15T09:25:48.308Z,16.24
2022-11-15T09:26:48.250Z,16.13
2022-11-15T09:27:48.259Z,16.10
2022-11-15T09:28:48.258Z,15.94
2022-11-15T09:29:48.235Z,15.84
2022-11-15T09:30:48.210Z,15.84
2022-11-15T09:31:48.211Z,15.88
2022-11-15T09:32:48.191Z,15.80
2022-11-15T09:33:48.171Z,15.92
2022-11-15T09:34:48.165Z,16.09
2022-11-15T09:35:48.150Z,16.23
2022-11-15T09:36:48.182Z,16.36
2022-11-15T09:37:52.211Z,16.38
2022-11-15T09:38:49.108Z,16.38
2022-11-15T09:39:48.101Z,16.09
2022-11-15T09:40:48.099Z,15.91
2022-11-15T09:41:48.079Z,15.90
2022-11-15T09:42:48.089Z,15.76
2022-11-15T09:43:48.060Z,15.57
2022-11-15T09:44:48.060Z,15.37
2022-11-15T09:45:48.077Z,15.36
2022-11-15T09:46:48.071Z,15.37
2022-11-15T09:47:48.011Z,15.21
2022-11-15T09:48:48.030Z,15.09
2022-11-15T09:49:47.990Z,14.96
2022-11-15T09:50:48.012Z,14.94
2022-11-15T09:51:48.077Z,14.99
2022-11-15T09:52:47.940Z,15.18
2022-11-15T09:54:30.262Z,15.35
2022-11-15T09:54:53.811Z,15.43
2022-11-15T09:55:48.957Z,15.36
2022-11-15T09:56:47.910Z,15.28
2022-11-15T09:57:47.901Z,15.39
2022-11-15T09:58:47.891Z,15.36
2022-11-15T09:59:47.900Z,15.36
2022-11-15T10:00:48.472Z,15.31
2022-11-15T10:01:47.986Z,15.39
2022-11-15T10:02:47.842Z,15.43
2022-11-15T10:03:47.831Z,15.43
2022-11-15T10:04:47.832Z,15.51
2022-11-15T10:05:47.833Z,15.59
2022-11-15T10:06:47.811Z,15.61
2022-11-15T10:07:47.780Z,15.70
2022-11-15T10:08:47.784Z,15.92
2022-11-15T10:09:47.762Z,16.10
2022-11-15T10:10:47.751Z,16.29
2022-11-15T10:11:47.751Z,16.43
2022-11-15T10:12:47.721Z,16.49
2022-11-15T10:13:47.718Z,16.60
2022-11-15T10:14:53.200Z,16.65
2022-11-15T10:15:48.732Z,16.43
2022-11-15T10:16:47.702Z,16.36
2022-11-15T10:17:47.671Z,16.15
2022-11-15T10:18:47.659Z,16.05
2022-11-15T10:19:47.642Z,16.04
2022-11-15T10:20:47.652Z,16.05
2022-11-15T10:21:47.632Z,16.10
2022-11-15T10:22:47.635Z,16.35
2022-11-15T10:23:47.597Z,16.33
2022-11-15T10:24:47.583Z,16.33
2022-11-15T10:25:47.574Z,16.46
2022-11-15T10:26:47.565Z,16.33
2022-11-15T10:27:47.604Z,16.35
2022-11-15T10:28:47.542Z,16.28
2022-11-15T10:29:47.553Z,16.17
2022-11-15T10:30:47.512Z,16.17
2022-11-15T10:31:47.502Z,16.31
2022-11-15T10:32:47.555Z,16.23
2022-11-15T10:33:47.483Z,16.33
2022-11-15T10:34:47.466Z,16.61
2022-11-15T10:35:47.464Z,16.81
2022-11-15T10:36:50.264Z,16.68
2022-11-15T10:37:47.433Z,16.61
2022-11-15T10:38:47.435Z,16.74
2022-11-15T10:39:47.428Z,16.81
2022-11-15T10:40:47.434Z,16.87
2022-11-15T10:41:47.399Z,17.06
2022-11-15T10:42:47.378Z,16.90
2022-11-15T10:43:47.384Z,16.75
2022-11-15T10:44:47.353Z,16.96
2022-11-15T10:45:47.344Z,17.09
2022-11-15T10:46:47.860Z,16.89
2022-11-15T10:47:47.342Z,16.75
2022-11-15T10:48:47.308Z,16.61
2022-11-15T10:49:47.347Z,16.68
2022-11-15T10:50:47.276Z,16.64
2022-11-15T10:51:47.327Z,16.64
2022-11-15T10:52:47.254Z,16.65
2022-11-15T10:53:47.247Z,16.42
2022-11-15T10:54:47.233Z,16.49
2022-11-15T10:55:47.262Z,16.65
2022-11-15T10:56:47.236Z,16.71
2022-11-15T10:57:47.209Z,16.90
2022-11-15T10:58:47.187Z,17.05
2022-11-15T10:59:47.193Z,17.29
2022-11-15T11:00:47.197Z,17.24
2022-11-15T11:01:47.220Z,16.93
2022-11-15T11:02:47.167Z,16.68
2022-11-15T11:03:47.146Z,16.74
2022-11-15T11:04:47.126Z,17.01
2022-11-15T11:05:47.125Z,17.23
2022-11-15T11:06:47.143Z,17.41
2022-11-15T11:07:47.086Z,17.56
2022-11-15T11:08:47.307Z,17.74
2022-11-15T11:09:47.076Z,17.79
2022-11-15T11:10:52.230Z,17.65
2022-11-15T11:11:48.136Z,17.74
2022-11-15T11:12:47.040Z,17.89
2022-11-15T11:13:47.030Z,18.04
2022-11-15T11:14:46.999Z,17.72
2022-11-15T11:15:47.008Z,17.65
2022-11-15T11:16:46.976Z,17.57
2022-11-15T11:17:46.986Z,17.56
2022-11-15T11:18:46.955Z,17.57
2022-11-15T11:19:46.948Z,17.27
2022-11-15T11:20:46.933Z,17.27
2022-11-15T11:21:46.930Z,17.33
2022-11-15T11:22:47.015Z,17.24
2022-11-15T11:23:46.904Z,16.99
2022-11-15T11:24:46.895Z,17.12
2022-11-15T11:25:46.875Z,17.22
2022-11-15T11:26:46.865Z,17.33
2022-11-15T11:27:46.864Z,17.42
2022-11-15T11:28:46.866Z,17.16
2022-11-15T11:29:46.846Z,17.09
2022-11-15T11:30:46.817Z,17.16
2022-11-15T11:31:46.807Z,17.26
2022-11-15T11:32:49.279Z,17.29
2022-11-15T11:33:46.795Z,17.41
2022-11-15T11:34:46.800Z,17.34
2022-11-15T11:35:46.769Z,17.41
2022-11-15T11:36:46.746Z,17.56
2022-11-15T11:37:46.738Z,17.46
2022-11-15T11:38:46.738Z,17.46
2022-11-15T11:39:46.719Z,17.38
2022-11-15T11:40:46.740Z,17.38
2022-11-15T11:41:46.690Z,17.15
2022-11-15T11:42:46.692Z,17.09
2022-11-15T11:43:46.668Z,17.04
2022-11-15T11:44:46.665Z,16.94
2022-11-15T11:45:47.415Z,16.84
2022-11-15T11:46:46.648Z,17.09
2022-11-15T11:47:46.633Z,17.12
2022-11-15T11:48:46.614Z,17.12
2022-11-15T11:49:46.605Z,17.05
2022-11-15T11:50:46.588Z,17.16
2022-11-15T11:51:46.606Z,17.30
2022-11-15T11:52:46.563Z,17.15
2022-11-15T11:53:46.666Z,17.33
2022-11-15T11:54:46.536Z,17.54
2022-11-15T11:55:46.539Z,17.72
2022-11-15T11:56:46.520Z,17.74
2022-11-15T11:57:46.529Z,17.76
2022-11-15T11:58:46.491Z,17.90
2022-11-15T11:59:46.489Z,18.03
2022-11-15T12:00:46.489Z,18.07
2022-11-15T12:01:46.567Z,17.85
2022-11-15T12:02:46.644Z,17.71
2022-11-15T12:03:46.500Z,17.74
2022-11-15T12:04:46.435Z,17.72
2022-11-15T12:05:46.410Z,17.54
2022-11-15T12:06:46.479Z,17.67
2022-11-15T12:07:46.399Z,17.86
2022-11-15T12:08:46.431Z,17.78
2022-11-15T12:09:46.391Z,17.56
2022-11-15T12:10:46.361Z,17.76
2022-11-15T12:11:46.349Z,17.92
2022-11-15T12:12:46.341Z,17.56
2022-11-15T12:13:46.332Z,17.44
2022-11-15T12:14:46.340Z,17.46
2022-11-15T12:15:46.310Z,17.23
2022-11-15T12:16:46.281Z,17.24
2022-11-15T12:17:46.293Z,17.24
2022-11-15T12:18:46.270Z,17.09
2022-11-15T12:19:46.270Z,16.76
2022-11-15T12:20:46.301Z,16.69
2022-11-15T12:21:46.296Z,16.66
2022-11-15T12:22:46.224Z,16.66
2022-11-15T12:23:46.214Z,16.78
2022-11-15T12:24:46.213Z,16.74
2022-11-15T12:25:46.205Z,16.90
2022-11-15T12:26:46.233Z,17.06
2022-11-15T12:27:46.172Z,17.08
2022-11-15T12:29:05.776Z,17.05
2022-11-15T12:29:47.151Z,17.04
2022-11-15T12:30:46.131Z,17.08
2022-11-15T12:31:46.123Z,17.19
2022-11-15T12:32:46.143Z,17.34
2022-11-15T12:33:46.103Z,17.42
2022-11-15T12:34:46.107Z,17.39
2022-11-15T12:35:46.101Z,17.49
2022-11-15T12:36:46.083Z,17.45
2022-11-15T12:37:46.052Z,17.59
2022-11-15T12:38:46.096Z,17.85
2022-11-15T12:39:46.022Z,18.01
2022-11-15T12:40:46.014Z,17.87
2022-11-15T12:41:46.016Z,17.79
2022-11-15T12:42:46.000Z,17.90
2022-11-15T12:43:45.985Z,17.82
2022-11-15T12:44:45.995Z,17.85
2022-11-15T12:45:45.962Z,17.54
2022-11-15T12:46:45.943Z,17.44
2022-11-15T12:47:45.934Z,17.48
2022-11-15T12:48:45.943Z,17.63
2022-11-15T12:49:46.072Z,17.63
2022-11-15T12:50:45.902Z,17.39
2022-11-15T12:51:45.892Z,17.30
2022-11-15T12:52:45.873Z,17.30